createdAt,value
2017-12-21T00:01:40.830Z,13.80
2017-12-21T00:04:06.906Z,13.13
2017-12-21T00:06:33.826Z,14.57
2017-12-21T00:08:59.826Z,13.97
2017-12-21T00:11:27.847Z,15.27
2017-12-21T00:13:53.852Z,14.53
2017-12-21T00:16:19.836Z,14.70
2017-12-21T00:18:45.738Z,14.37
2017-12-21T00:21:11.714Z,15.17
2017-12-21T00:23:38.165Z,16.40
2017-12-21T00:26:04.017Z,14.10
2017-12-21T00:28:29.990Z,15.43
2017-12-21T00:30:55.981Z,16.43
2017-12-21T00:33:21.979Z,15.70
2017-12-21T00:35:47.923Z,15.93
2017-12-21T00:38:13.883Z,15.40
2017-12-21T00:40:40.710Z,14.97
2017-12-21T00:43:06.678Z,13.80
2017-12-21T00:45:32.659Z,15.30
2017-12-21T00:47:58.629Z,13.47
2017-12-21T00:50:24.574Z,15.40
2017-12-21T00:52:50.534Z,13.70
2017-12-21T00:55:16.448Z,13.00
2017-12-21T00:57:43.395Z,12.63
2017-12-21T01:00:10.405Z,13.80
2017-12-21T01:02:37.380Z,14.50
2017-12-21T01:05:04.182Z,14.23
2017-12-21T01:07:30.879Z,14.23
2017-12-21T01:09:57.745Z,13.00
2017-12-21T01:12:23.708Z,13.67
2017-12-21T01:14:49.670Z,13.23
2017-12-21T01:17:15.589Z,14.43
2017-12-21T01:19:41.520Z,13.73
2017-12-21T01:22:07.469Z,12.80
2017-12-21T01:24:34.545Z,13.00
2017-12-21T01:27:00.482Z,13.53
2017-12-21T01:29:26.458Z,13.00
2017-12-21T01:31:52.387Z,14.07
2017-12-21T01:34:18.321Z,15.50
2017-12-21T01:36:44.259Z,13.47
2017-12-21T01:39:10.166Z,11.97
2017-12-21T01:41:36.159Z,12.40
2017-12-21T01:44:02.093Z,12.23
2017-12-21T01:46:28.824Z,12.00
2017-12-21T01:48:56.385Z,11.87
2017-12-21T01:51:22.314Z,11.63
2017-12-21T01:53:49.688Z,12.10
2017-12-21T01:56:15.914Z,11.10
2017-12-21T01:58:41.860Z,12.53
2017-12-21T02:01:08.293Z,11.23
2017-12-21T02:03:34.183Z,11.53
2017-12-21T02:06:00.718Z,11.20
2017-12-21T02:08:27.592Z,12.13
2017-12-21T02:10:53.590Z,12.37
2017-12-21T02:13:19.782Z,11.10
2017-12-21T02:15:46.421Z,11.47
2017-12-21T02:18:13.095Z,11.67
2017-12-21T02:20:39.078Z,12.53
2017-12-21T02:23:05.013Z,12.40
2017-12-21T02:25:30.963Z,12.20
2017-12-21T02:27:57.806Z,12.40
2017-12-21T02:30:23.755Z,12.80
2017-12-21T02:32:50.614Z,12.33
2017-12-21T02:35:16.560Z,10.80
2017-12-21T02:37:43.286Z,11.30
2017-12-21T02:40:09.194Z,12.60
2017-12-21T02:42:35.156Z,12.73
2017-12-21T02:45:01.070Z,11.67
2017-12-21T02:47:27.022Z,12.17
2017-12-21T02:49:53.648Z,13.57
2017-12-21T02:52:19.590Z,12.63
2017-12-21T02:54:45.503Z,12.70
2017-12-21T02:57:11.414Z,13.60
2017-12-21T02:59:37.358Z,12.93
2017-12-21T03:02:03.287Z,12.73
2017-12-21T03:04:29.829Z,13.60
2017-12-21T03:06:55.735Z,12.90
2017-12-21T03:09:21.646Z,13.33
2017-12-21T03:11:47.539Z,12.07
2017-12-21T03:14:13.486Z,12.33
2017-12-21T03:16:39.466Z,12.43
2017-12-21T03:19:05.386Z,12.30
2017-12-21T03:21:31.296Z,12.50
2017-12-21T03:23:57.961Z,13.87
2017-12-21T03:26:23.897Z,13.97
2017-12-21T03:28:49.859Z,13.40
2017-12-21T03:31:15.820Z,13.57
2017-12-21T03:33:41.803Z,13.13
2017-12-21T03:36:07.706Z,13.20
2017-12-21T03:38:33.626Z,13.73
2017-12-21T03:40:59.544Z,13.43
2017-12-21T03:43:26.475Z,13.60
2017-12-21T03:45:52.371Z,13.13
2017-12-21T03:48:18.289Z,13.37
2017-12-21T03:50:44.218Z,14.03
2017-12-21T03:53:10.122Z,13.47
2017-12-21T03:55:36.212Z,13.70
2017-12-21T03:58:02.905Z,13.80
2017-12-21T04:00:28.910Z,13.63
2017-12-21T04:02:54.842Z,13.13
2017-12-21T04:05:21.490Z,13.80
2017-12-21T04:07:47.486Z,13.00
2017-12-21T04:10:13.414Z,14.00
2017-12-21T04:12:39.327Z,13.10
2017-12-21T04:15:05.359Z,12.30
2017-12-21T04:17:32.043Z,13.00
2017-12-21T04:19:58.019Z,11.67
2017-12-21T04:22:23.938Z,12.37
2017-12-21T04:24:49.859Z,12.50
2017-12-21T04:27:15.895Z,12.47
2017-12-21T04:29:41.876Z,13.77
2017-12-21T04:32:08.657Z,13.13
2017-12-21T04:34:34.648Z,12.70
2017-12-21T04:37:00.623Z,13.27
2017-12-21T04:39:26.547Z,13.40
2017-12-21T04:41:52.484Z,12.87
2017-12-21T04:44:18.509Z,14.03
2017-12-21T04:46:44.434Z,13.27
2017-12-21T04:49:11.126Z,13.53
2017-12-21T04:51:38.101Z,13.37
2017-12-21T04:54:04.197Z,12.80
2017-12-21T04:56:31.066Z,14.03
2017-12-21T04:58:57.071Z,14.00
2017-12-21T05:01:23.466Z,13.43
2017-12-21T05:03:49.442Z,14.00
2017-12-21T05:06:15.434Z,14.00
2017-12-21T05:08:41.382Z,12.77
2017-12-21T05:11:07.368Z,14.87
2017-12-21T05:13:33.349Z,13.60
2017-12-21T05:16:00.071Z,15.80
2017-12-21T05:18:25.999Z,14.30
2017-12-21T05:20:51.986Z,15.40
2017-12-21T05:23:17.952Z,15.40
2017-12-21T05:25:45.609Z,15.07
2017-12-21T05:28:11.509Z,14.80
2017-12-21T05:30:38.480Z,15.67
2017-12-21T05:33:05.132Z,16.17
2017-12-21T05:35:31.206Z,15.07
2017-12-21T05:37:57.163Z,15.87
2017-12-21T05:40:23.166Z,16.30
2017-12-21T05:42:49.117Z,15.37
2017-12-21T05:45:15.926Z,15.77
2017-12-21T05:47:41.889Z,17.57
2017-12-21T05:50:08.979Z,15.63
2017-12-21T05:52:34.959Z,16.20
2017-12-21T05:55:01.655Z,16.80
2017-12-21T05:57:28.589Z,16.13
2017-12-21T05:59:54.497Z,15.93
2017-12-21T06:02:20.454Z,15.83
2017-12-21T06:04:47.164Z,16.93
2017-12-21T06:07:13.095Z,17.03
2017-12-21T06:09:39.019Z,15.90
2017-12-21T06:12:04.987Z,14.90
2017-12-21T06:14:31.064Z,16.23
2017-12-21T06:16:57.039Z,17.80
2017-12-21T06:19:23.029Z,16.80
2017-12-21T06:21:49.714Z,17.23
2017-12-21T06:24:15.657Z,15.90
2017-12-21T06:26:41.591Z,17.57
2017-12-21T06:29:07.509Z,17.00
2017-12-21T06:31:33.466Z,16.30
2017-12-21T06:33:59.363Z,17.90
2017-12-21T06:36:25.295Z,16.67
2017-12-21T06:38:51.284Z,16.90
2017-12-21T06:41:17.357Z,18.40
2017-12-21T06:43:44.145Z,17.80
2017-12-21T06:46:10.184Z,18.00
2017-12-21T06:48:36.924Z,17.60
2017-12-21T06:51:02.884Z,16.20
2017-12-21T06:53:28.795Z,17.43
2017-12-21T06:55:54.730Z,17.10
2017-12-21T06:58:20.695Z,17.43
2017-12-21T07:00:46.670Z,15.97
2017-12-21T07:03:12.648Z,16.30
2017-12-21T07:05:38.675Z,16.80
2017-12-21T07:08:06.275Z,17.50
2017-12-21T07:10:32.259Z,18.80
2017-12-21T07:12:59.003Z,17.43
2017-12-21T07:15:24.957Z,19.20
2017-12-21T07:17:50.919Z,17.03
2017-12-21T07:20:17.799Z,19.07
2017-12-21T07:22:43.950Z,17.67
2017-12-21T07:25:09.923Z,17.77
2017-12-21T07:27:35.931Z,19.60
2017-12-21T07:30:01.919Z,19.10
2017-12-21T07:32:27.877Z,19.30
2017-12-21T07:34:53.851Z,17.77
2017-12-21T07:37:19.814Z,18.50
2017-12-21T07:39:45.798Z,17.50
2017-12-21T07:42:12.728Z,18.80
2017-12-21T07:44:38.811Z,17.20
2017-12-21T07:47:04.956Z,17.57
2017-12-21T07:49:31.642Z,17.40
2017-12-21T07:51:57.600Z,17.93
2017-12-21T07:54:23.569Z,18.90
2017-12-21T07:56:49.556Z,21.00
2017-12-21T07:59:15.470Z,17.40
2017-12-21T08:01:41.426Z,18.30
2017-12-21T08:04:07.395Z,19.57
2017-12-21T08:06:33.327Z,20.57
2017-12-21T08:08:59.242Z,21.20
2017-12-21T08:11:25.201Z,18.13
2017-12-21T08:13:51.846Z,19.80
2017-12-21T08:16:17.739Z,19.60
2017-12-21T08:18:44.387Z,21.50
2017-12-21T08:21:10.365Z,18.73
2017-12-21T08:23:36.426Z,20.70
2017-12-21T08:26:02.323Z,19.07
2017-12-21T08:28:28.315Z,20.37
2017-12-21T08:30:54.258Z,20.03
2017-12-21T08:33:20.209Z,21.20
2017-12-21T08:35:46.870Z,19.77
2017-12-21T08:38:12.798Z,21.50
2017-12-21T08:40:38.754Z,19.47
2017-12-21T08:43:05.586Z,20.20
2017-12-21T08:45:31.746Z,18.93
2017-12-21T08:47:57.668Z,20.40
2017-12-21T08:50:24.364Z,20.40
2017-12-21T08:52:50.358Z,20.27
2017-12-21T08:55:16.289Z,20.73
2017-12-21T08:57:42.269Z,19.07
2017-12-21T09:00:08.205Z,20.10
2017-12-21T09:02:35.202Z,19.70
2017-12-21T09:05:01.144Z,19.40
2017-12-21T09:07:27.074Z,17.57
2017-12-21T09:09:53.082Z,20.27
2017-12-21T09:12:19.061Z,18.73
2017-12-21T09:14:44.984Z,19.40
2017-12-21T09:17:11.542Z,18.67
2017-12-21T09:19:37.643Z,20.20
2017-12-21T09:22:03.605Z,20.67
2017-12-21T09:24:29.715Z,21.20
2017-12-21T09:26:55.670Z,20.50
2017-12-21T09:29:22.423Z,20.60
2017-12-21T09:31:48.360Z,20.97
2017-12-21T09:34:14.965Z,19.57
2017-12-21T09:36:40.917Z,20.70
2017-12-21T09:39:06.846Z,22.33
2017-12-21T09:41:32.791Z,21.50
2017-12-21T09:43:58.799Z,21.40
2017-12-21T09:46:24.813Z,20.60
2017-12-21T09:48:51.678Z,21.13
2017-12-21T09:51:17.689Z,19.27
2017-12-21T09:53:43.794Z,22.37
2017-12-21T09:56:09.719Z,21.00
2017-12-21T09:58:35.695Z,20.33
2017-12-21T10:01:01.714Z,21.87
2017-12-21T10:03:27.698Z,18.60
2017-12-21T10:05:53.606Z,20.27
2017-12-21T10:08:19.699Z,19.57
2017-12-21T10:10:46.485Z,20.40
2017-12-21T10:13:12.454Z,21.57
2017-12-21T10:15:39.408Z,18.50
2017-12-21T10:18:06.075Z,21.73
2017-12-21T10:20:31.976Z,19.90
2017-12-21T10:22:57.978Z,20.80
2017-12-21T10:25:24.548Z,20.83
2017-12-21T10:27:50.507Z,18.27
2017-12-21T10:30:16.452Z,21.10
2017-12-21T10:32:42.360Z,19.10
2017-12-21T10:35:08.301Z,20.83
2017-12-21T10:37:35.262Z,20.00
2017-12-21T10:40:01.293Z,21.57
2017-12-21T10:42:27.210Z,20.27
2017-12-21T10:44:53.128Z,21.00
2017-12-21T10:47:20.075Z,20.20
2017-12-21T10:49:46.014Z,21.33
2017-12-21T10:52:12.092Z,18.53
2017-12-21T10:54:38.830Z,18.20
2017-12-21T10:57:04.789Z,19.60
2017-12-21T10:59:30.765Z,21.57
2017-12-21T11:01:56.704Z,18.20
2017-12-21T11:04:23.392Z,18.00
2017-12-21T11:06:50.215Z,19.20
2017-12-21T11:09:16.160Z,18.20
2017-12-21T11:11:42.653Z,17.87
2017-12-21T11:14:08.676Z,18.40
2017-12-21T11:16:34.751Z,17.73
2017-12-21T11:19:00.708Z,27.00
2017-12-21T11:21:27.416Z,18.20
2017-12-21T11:23:53.366Z,18.93
2017-12-21T11:26:19.557Z,19.40
2017-12-21T11:28:45.484Z,19.67
2017-12-21T11:31:11.490Z,18.03
2017-12-21T11:33:38.510Z,17.97
2017-12-21T11:36:04.487Z,16.97
2017-12-21T11:38:30.565Z,18.17
2017-12-21T11:40:56.662Z,19.47
2017-12-21T11:43:22.687Z,19.00
2017-12-21T11:45:48.627Z,18.77
2017-12-21T11:48:14.569Z,17.73
2017-12-21T11:50:40.539Z,18.67
2017-12-21T11:53:07.855Z,18.33
2017-12-21T11:55:33.894Z,18.47
2017-12-21T11:57:59.978Z,20.67
2017-12-21T12:00:26.953Z,19.37
2017-12-21T12:02:53.683Z,19.13
2017-12-21T12:05:19.631Z,18.30
2017-12-21T12:07:45.721Z,17.70
2017-12-21T12:10:11.751Z,17.60
2017-12-21T12:12:37.711Z,18.90
2017-12-21T12:15:04.466Z,17.67
2017-12-21T12:17:30.428Z,18.97
2017-12-21T12:19:56.337Z,17.93
2017-12-21T12:22:23.016Z,17.73
2017-12-21T12:24:49.570Z,17.57
2017-12-21T12:27:16.275Z,18.40
2017-12-21T12:29:43.951Z,17.97
2017-12-21T12:32:09.898Z,16.03
2017-12-21T12:34:35.993Z,18.13
2017-12-21T12:37:01.895Z,18.17
2017-12-21T12:39:29.206Z,15.43
2017-12-21T12:41:56.150Z,16.23
2017-12-21T12:44:22.087Z,17.37
2017-12-21T12:46:48.027Z,16.23
2017-12-21T12:49:14.004Z,17.20
2017-12-21T12:51:42.342Z,19.17
2017-12-21T12:54:08.300Z,23.20
2017-12-21T12:56:34.285Z,17.50
2017-12-21T12:59:00.243Z,17.80
2017-12-21T13:01:26.351Z,18.77
2017-12-21T13:03:53.919Z,18.60
2017-12-21T13:06:19.906Z,18.77
2017-12-21T13:08:47.070Z,18.40
2017-12-21T13:11:12.996Z,18.50
2017-12-21T13:13:38.983Z,19.07
2017-12-21T13:16:05.171Z,19.83
2017-12-21T13:18:31.875Z,19.97
2017-12-21T13:20:58.815Z,18.73
2017-12-21T13:23:24.757Z,18.47
2017-12-21T13:25:52.375Z,17.27
2017-12-21T13:28:18.299Z,16.47
2017-12-21T13:30:44.219Z,17.50
2017-12-21T13:33:10.165Z,16.43
2017-12-21T13:35:36.174Z,20.47
2017-12-21T13:38:02.156Z,17.80
2017-12-21T13:40:28.118Z,16.93
2017-12-21T13:42:54.070Z,17.47
2017-12-21T13:45:20.067Z,16.97
2017-12-21T13:47:46.062Z,16.17
2017-12-21T13:50:12.920Z,17.63
2017-12-21T13:52:38.939Z,19.50
2017-12-21T13:55:05.029Z,17.03
2017-12-21T13:57:31.080Z,15.43
2017-12-21T13:59:57.028Z,16.33
2017-12-21T14:02:22.955Z,15.70
2017-12-21T14:04:49.131Z,15.93
2017-12-21T14:07:15.128Z,15.53
2017-12-21T14:09:41.200Z,15.37
2017-12-21T14:12:07.322Z,14.80
2017-12-21T14:14:33.919Z,15.23
2017-12-21T14:16:59.896Z,15.00
2017-12-21T14:19:26.206Z,14.10
2017-12-21T14:21:52.307Z,13.80
2017-12-21T14:24:19.989Z,13.27
2017-12-21T14:26:46.086Z,14.97
2017-12-21T14:29:12.111Z,13.97
2017-12-21T14:31:38.055Z,13.97
2017-12-21T14:34:03.998Z,14.13
2017-12-21T14:36:29.995Z,14.10
2017-12-21T14:38:56.000Z,13.77
2017-12-21T14:41:21.932Z,12.23
2017-12-21T14:43:48.966Z,13.10
2017-12-21T14:46:16.059Z,14.07
2017-12-21T14:48:42.190Z,13.93
2017-12-21T14:51:08.231Z,14.37
2017-12-21T14:53:34.217Z,15.70
2017-12-21T14:56:00.960Z,15.90
2017-12-21T15:01:02.087Z,16.53
2017-12-21T15:03:28.070Z,14.67
2017-12-21T15:05:54.760Z,15.63
2017-12-21T15:08:20.732Z,15.13
2017-12-21T15:10:48.152Z,17.07
2017-12-21T15:13:14.110Z,16.00
2017-12-21T15:15:40.062Z,14.90
2017-12-21T15:18:08.873Z,15.97
2017-12-21T15:20:34.837Z,18.20
2017-12-21T15:23:01.541Z,17.30
2017-12-21T15:25:27.850Z,16.50
2017-12-21T15:27:53.964Z,17.57
2017-12-21T15:30:20.001Z,21.27
2017-12-21T15:32:46.038Z,17.87
2017-12-21T15:35:12.967Z,17.30
2017-12-21T15:37:38.945Z,17.67
2017-12-21T15:40:06.212Z,17.63
2017-12-21T15:42:32.178Z,16.20
2017-12-21T15:44:58.176Z,17.23
2017-12-21T15:47:24.193Z,18.40
2017-12-21T15:49:50.142Z,17.47
2017-12-21T15:52:16.089Z,17.60
2017-12-21T15:54:42.035Z,18.47
2017-12-21T15:57:08.579Z,17.17
2017-12-21T15:59:34.467Z,17.33
2017-12-21T16:02:00.449Z,18.23
2017-12-21T16:04:26.420Z,16.80
2017-12-21T16:06:52.861Z,18.30
2017-12-21T16:09:18.835Z,14.87
2017-12-21T16:11:44.780Z,15.67
2017-12-21T16:14:10.766Z,15.30
2017-12-21T16:16:36.687Z,15.80
2017-12-21T16:19:03.529Z,15.93
2017-12-21T16:21:29.569Z,17.30
2017-12-21T16:23:55.496Z,16.23
2017-12-21T16:26:21.426Z,16.20
2017-12-21T16:28:47.431Z,16.20
2017-12-21T16:31:13.458Z,17.17
2017-12-21T16:33:39.451Z,14.93
2017-12-21T16:36:05.435Z,15.73
2017-12-21T16:38:31.391Z,15.90
2017-12-21T16:40:57.786Z,15.33
2017-12-21T16:43:24.600Z,15.50
2017-12-21T16:45:51.356Z,15.23
2017-12-21T16:48:18.194Z,15.60
2017-12-21T16:50:44.117Z,15.73
2017-12-21T16:53:10.044Z,16.50
2017-12-21T16:55:35.962Z,15.93
2017-12-21T16:58:02.641Z,16.23
2017-12-21T17:00:28.589Z,16.20
2017-12-21T17:02:54.558Z,15.77
2017-12-21T17:05:20.518Z,16.83
2017-12-21T17:07:46.454Z,16.80
2017-12-21T17:10:12.393Z,19.23
2017-12-21T17:12:38.539Z,16.97
2017-12-21T17:15:06.186Z,17.10
2017-12-21T17:17:33.927Z,18.03
2017-12-21T17:19:59.867Z,16.70
2017-12-21T17:22:29.538Z,17.60
2017-12-21T17:24:56.479Z,18.20
2017-12-21T17:27:23.117Z,17.70
2017-12-21T17:29:50.315Z,18.13
2017-12-21T17:32:17.859Z,17.93
2017-12-21T17:34:45.864Z,18.07
2017-12-21T17:37:11.849Z,16.30
2017-12-21T17:39:37.770Z,19.07
2017-12-21T17:42:04.325Z,17.53
2017-12-21T17:44:31.822Z,19.50
2017-12-21T17:46:58.642Z,17.70
2017-12-21T17:49:24.644Z,19.13
2017-12-21T17:51:53.124Z,18.30
2017-12-21T17:54:19.831Z,18.60
2017-12-21T17:56:45.811Z,18.77
2017-12-21T17:59:12.373Z,17.90
2017-12-21T18:01:38.415Z,18.60
2017-12-21T18:04:04.447Z,18.33
2017-12-21T18:06:30.490Z,19.00
2017-12-21T18:08:56.857Z,18.80
2017-12-21T18:11:25.153Z,20.13
2017-12-21T18:13:52.150Z,19.03
2017-12-21T18:16:18.205Z,17.77
2017-12-21T18:18:44.261Z,21.50
2017-12-21T18:21:10.218Z,19.73
2017-12-21T18:23:36.357Z,19.30
2017-12-21T18:26:02.331Z,20.00
2017-12-21T18:28:28.370Z,18.97
2017-12-21T18:30:54.403Z,20.00
2017-12-21T18:33:20.449Z,19.93
2017-12-21T18:35:48.118Z,19.77
2017-12-21T18:38:15.034Z,20.73
2017-12-21T18:40:40.984Z,22.47
2017-12-21T18:43:06.961Z,22.30
2017-12-21T18:45:32.927Z,19.87
2017-12-21T18:48:01.724Z,20.40
2017-12-21T18:50:27.737Z,20.03
2017-12-21T18:52:53.793Z,21.27
2017-12-21T18:55:19.863Z,20.63
2017-12-21T18:57:45.971Z,19.50
2017-12-21T19:00:12.202Z,21.40
2017-12-21T19:02:38.801Z,20.70
2017-12-21T19:05:04.856Z,22.57
2017-12-21T19:07:32.563Z,20.00
2017-12-21T19:09:58.634Z,19.87
2017-12-21T19:12:24.589Z,20.40
2017-12-21T19:14:51.544Z,18.50
2017-12-21T19:17:17.473Z,19.70
2017-12-21T19:19:44.001Z,19.43
2017-12-21T19:22:10.599Z,19.50
2017-12-21T19:24:36.552Z,20.00
2017-12-21T19:27:02.811Z,19.03
2017-12-21T19:29:28.755Z,21.17
2017-12-21T19:31:54.684Z,19.23
2017-12-21T19:34:20.663Z,19.40
2017-12-21T19:36:47.374Z,20.57
2017-12-21T19:39:13.381Z,19.73
2017-12-21T19:41:40.542Z,19.80
2017-12-21T19:44:08.874Z,20.60
2017-12-21T19:46:35.620Z,19.57
2017-12-21T19:49:01.839Z,20.30
2017-12-21T19:51:27.775Z,21.00
2017-12-21T19:53:53.704Z,20.53
2017-12-21T19:56:19.918Z,19.70
2017-12-21T19:58:45.825Z,19.17
2017-12-21T20:01:11.747Z,19.77
2017-12-21T20:03:37.652Z,20.27
2017-12-21T20:06:03.635Z,21.13
2017-12-21T20:08:29.567Z,20.00
2017-12-21T20:10:55.478Z,21.43
2017-12-21T20:13:21.414Z,21.00
2017-12-21T20:15:47.366Z,19.70
2017-12-21T20:18:13.653Z,19.87
2017-12-21T20:20:39.611Z,20.07
2017-12-21T20:23:05.571Z,21.17
2017-12-21T20:25:32.274Z,20.60
2017-12-21T20:27:58.244Z,20.90
2017-12-21T20:30:26.622Z,20.00
2017-12-21T20:32:52.527Z,19.10
2017-12-21T20:35:18.467Z,19.87
2017-12-21T20:37:44.721Z,21.93
2017-12-21T20:40:10.835Z,20.43
2017-12-21T20:42:37.329Z,20.67
2017-12-21T20:45:03.278Z,20.27
2017-12-21T20:47:29.416Z,19.30
2017-12-21T20:49:55.395Z,19.77
2017-12-21T20:52:21.390Z,19.70
2017-12-21T20:54:47.351Z,20.67
2017-12-21T20:57:14.103Z,20.83
2017-12-21T20:59:40.174Z,19.60
2017-12-21T21:02:06.186Z,20.13
2017-12-21T21:04:32.150Z,22.43
2017-12-21T21:06:58.818Z,20.00
2017-12-21T21:09:25.180Z,21.07
2017-12-21T21:11:51.634Z,21.60
2017-12-21T21:14:17.608Z,19.50
2017-12-21T21:16:44.536Z,20.67
2017-12-21T21:19:11.227Z,21.33
2017-12-21T21:21:37.127Z,21.43
2017-12-21T21:24:03.083Z,20.97
2017-12-21T21:26:29.035Z,20.90
2017-12-21T21:28:55.122Z,21.00
2017-12-21T21:31:23.290Z,21.90
2017-12-21T21:33:49.290Z,21.77
2017-12-21T21:36:15.246Z,23.80
2017-12-21T21:38:41.251Z,20.80
2017-12-21T21:41:08.409Z,24.00
2017-12-21T21:43:35.244Z,22.50
2017-12-21T21:46:01.209Z,22.73
2017-12-21T21:48:27.200Z,22.53
2017-12-21T21:50:53.160Z,22.13
2017-12-21T21:53:19.097Z,21.57
2017-12-21T21:55:45.820Z,22.30
2017-12-21T21:58:11.815Z,21.30
2017-12-21T22:00:37.784Z,21.87
2017-12-21T22:03:03.715Z,23.93
2017-12-21T22:05:29.687Z,23.00
2017-12-21T22:07:56.994Z,21.07
2017-12-21T22:10:23.294Z,22.23
2017-12-21T22:12:49.488Z,22.83
2017-12-21T22:15:15.723Z,23.10
2017-12-21T22:17:42.563Z,22.70
2017-12-21T22:20:09.384Z,22.43
2017-12-21T22:22:37.912Z,23.00
2017-12-21T22:25:04.909Z,23.80
2017-12-21T22:27:33.262Z,22.73
2017-12-21T22:29:59.211Z,23.70
2017-12-21T22:32:26.147Z,23.77
2017-12-21T22:34:52.105Z,24.80
2017-12-21T22:37:18.050Z,25.17
2017-12-21T22:39:44.990Z,22.30
2017-12-21T22:42:10.907Z,23.00
2017-12-21T22:44:37.284Z,22.80
2017-12-21T22:47:03.288Z,24.43
2017-12-21T22:49:29.231Z,22.10
2017-12-21T22:51:55.219Z,24.17
2017-12-21T22:54:21.159Z,24.10
2017-12-21T22:56:47.059Z,22.53
2017-12-21T22:59:13.003Z,24.93
2017-12-21T23:01:38.926Z,25.17
2017-12-21T23:04:04.998Z,22.93
2017-12-21T23:06:31.753Z,24.00
2017-12-21T23:08:57.720Z,22.00
2017-12-21T23:11:23.704Z,23.63
2017-12-21T23:13:50.440Z,23.70
2017-12-21T23:16:16.501Z,22.93
2017-12-21T23:18:42.537Z,23.63
2017-12-21T23:21:08.550Z,21.30
2017-12-21T23:23:34.531Z,23.67
2017-12-21T23:26:00.448Z,24.10
2017-12-21T23:28:26.396Z,21.77
2017-12-21T23:30:52.396Z,22.53
2017-12-21T23:33:19.243Z,22.30
2017-12-21T23:35:45.203Z,23.63
2017-12-21T23:38:11.797Z,22.17
2017-12-21T23:40:39.885Z,21.97
2017-12-21T23:43:06.752Z,23.87
2017-12-21T23:45:33.752Z,23.70
2017-12-21T23:47:59.771Z,25.27
2017-12-21T23:50:27.261Z,23.70
2017-12-21T23:52:53.853Z,23.83
2017-12-21T23:55:25.127Z,23.83
2017-12-21T23:57:51.088Z,24.77
